Time;durP1;ratioP1;P1;durP2;ratioP2;P2;SDS_P1;SDS_P2;PMS_P1;PMS_P2;Temp;Humidity;BMP_temperature;BMP_pressure;BME280_temperature;BME280_humidity;BME280_pressure;Samples;Min_cycle;Max_cycle;Signal;HPM_P1;HPM_P2
2023/04/24 00:02:10;;;;;;;;;;;;;;;;;;6232730;23;19919;-81
2023/04/24 00:04:40;;;;;;;;;;;;;;;;;;6207602;23;19919;-80
2023/04/24 00:07:09;;;;;;;;;;;;;;;;;;6232927;22;20352;-81
2023/04/24 00:09:37;;;;;;;;;;;;;;;;;;6260033;23;19920;-81
2023/04/24 00:12:07;;;;;;;;;;;;;;;;;;6268159;23;19926;-81
2023/04/24 00:14:34;;;;;;;;;;;;;;;;;;6234296;23;19929;-81
2023/04/24 00:17:03;;;;;;;;;;;;;;;;;;6234199;22;19926;-81
2023/04/24 00:19:32;;;;;;;;;;;;;;;;;;6233447;23;19919;-80
2023/04/24 00:21:59;;;;;;;;;;;;;;;;;;6208236;23;20340;-81
2023/04/24 00:24:26;;;;;;;;;;;;;;;;;;6209784;23;19920;-80
2023/04/24 00:26:54;;;;;;;;;;;;;;;;;;6234657;22;19930;-82
2023/04/24 00:29:21;;;;;;;;;;;;;;;;;;6209931;23;19919;-81
2023/04/24 00:31:48;;;;;;;;;;;;;;;;;;6209999;23;19926;-80
2023/04/24 00:34:15;;;;;;;;;;;;;;;;;;6211011;23;19919;-80
2023/04/24 00:36:44;;;;;;;;;;;;;;;;;;6210804;23;20336;-81
2023/04/24 00:39:11;;;;;;;;;;;;;;;;;;6211215;23;19920;-81
2023/04/24 00:41:38;;;;;;;;;;;;;;;;;;6211965;23;19919;-81
2023/04/24 00:44:05;;;;;;;;;;;;;;;;;;6210166;23;19919;-81
2023/04/24 00:46:33;;;;;;;;;;;;;;;;;;6211523;23;19919;-81
2023/04/24 00:49:00;;;;;;;;;;;;;;;;;;6210566;23;19919;-81
2023/04/24 00:51:27;;;;;;;;;;;;;;;;;;6211384;23;19919;-81
2023/04/24 00:53:56;;;;;;;;;;;;;;;;;;6211327;23;19924;-81
2023/04/24 00:56:23;;;;;;;;;;;;;;;;;;6210758;23;20362;-80
2023/04/24 00:58:50;;;;;;;;;;;;;;;;;;6210332;23;19926;-81
2023/04/24 01:01:18;;;;;;;;;;;;;;;;;;6235812;23;19920;-81
2023/04/24 01:03:45;;;;;;;;;;;;;;;;;;6211105;23;19923;-81
2023/04/24 01:06:12;;;;;;;;;;;;;;;;;;6211691;23;19920;-81
2023/04/24 01:08:39;;;;;;;;;;;;;;;;;;6209958;23;19923;-81
2023/04/24 01:11:07;;;;;;;;;;;;;;;;;;6263662;23;19920;-81
2023/04/24 01:13:37;;;;;;;;;;;;;;;;;;6237342;23;20371;-81
2023/04/24 01:16:04;;;;;;;;;;;;;;;;;;6235743;23;19934;-81
2023/04/24 01:18:32;;;;;;;;;;;;;;;;;;6235485;23;19938;-81
2023/04/24 01:20:59;;;;;;;;;;;;;;;;;;6235909;23;20259;-81
2023/04/24 01:23:28;;;;;;;;;;;;;;;;;;6211831;23;19919;-81
2023/04/24 01:25:55;;;;;;;;;;;;;;;;;;6210392;23;19924;-81
2023/04/24 01:28:22;;;;;;;;;;;;;;;;;;6235006;23;19926;-81
2023/04/24 01:30:49;;;;;;;;;;;;;;;;;;6210485;23;19920;-81
2023/04/24 01:33:16;;;;;;;;;;;;;;;;;;6210594;23;19920;-81
2023/04/24 01:35:43;;;;;;;;;;;;;;;;;;6236136;23;19934;-81
2023/04/24 01:38:11;;;;;;;;;;;;;;;;;;6210290;23;19919;-81
2023/04/24 01:40:39;;;;;;;;;;;;;;;;;;6261702;23;19930;-81
2023/04/24 01:43:06;;;;;;;;;;;;;;;;;;6209223;23;19923;-80
2023/04/24 01:45:36;;;;;;;;;;;;;;;;;;6237076;23;20275;-81
2023/04/24 01:48:06;;;;;;;;;;;;;;;;;;6209799;23;19926;-81
2023/04/24 01:50:33;;;;;;;;;;;;;;;;;;6235249;23;19926;-81
2023/04/24 01:53:04;;;;;;;;;;;;;;;;;;6210473;23;19919;-81
2023/04/24 01:55:31;;;;;;;;;;;;;;;;;;6211061;23;19920;-81
2023/04/24 01:58:02;;;;;;;;;;;;;;;;;;6210707;23;19929;-80
2023/04/24 02:00:29;;;;;;;;;;;;;;;;;;6210918;23;19920;-81
2023/04/24 02:02:56;;;;;;;;;;;;;;;;;;6211440;23;19911;-81
2023/04/24 02:05:24;;;;;;;;;;;;;;;;;;6210280;23;19920;-80
2023/04/24 02:07:51;;;;;;;;;;;;;;;;;;6185054;23;19929;-81
2023/04/24 02:10:21;;;;;;;;;;;;;;;;;;6236226;23;19926;-81
2023/04/24 02:12:48;;;;;;;;;;;;;;;;;;6210501;23;19919;-81
2023/04/24 02:15:17;;;;;;;;;;;;;;;;;;6210051;23;19919;-81
2023/04/24 02:17:47;;;;;;;;;;;;;;;;;;6234120;23;19923;-81
2023/04/24 02:20:14;;;;;;;;;;;;;;;;;;6210278;23;19920;-81
2023/04/24 02:22:41;;;;;;;;;;;;;;;;;;6235354;23;19934;-81
2023/04/24 02:25:09;;;;;;;;;;;;;;;;;;6235578;23;19930;-81
2023/04/24 02:27:38;;;;;;;;;;;;;;;;;;6234526;23;20370;-81
2023/04/24 02:30:07;;;;;;;;;;;;;;;;;;6235700;23;19924;-81
2023/04/24 02:32:36;;;;;;;;;;;;;;;;;;6234008;23;19919;-81
2023/04/24 02:35:04;;;;;;;;;;;;;;;;;;6234054;23;19920;-81
2023/04/24 02:37:33;;;;;;;;;;;;;;;;;;6208587;23;19920;-81
2023/04/24 02:40:00;;;;;;;;;;;;;;;;;;6234111;23;19926;-81
2023/04/24 02:42:28;;;;;;;;;;;;;;;;;;6234198;23;19924;-80
2023/04/24 02:44:55;;;;;;;;;;;;;;;;;;6236266;23;19920;-81
2023/04/24 02:47:26;;;;;;;;;;;;;;;;;;6210632;23;19930;-81
2023/04/24 02:49:57;;;;;;;;;;;;;;;;;;6204836;23;19926;-81
2023/04/24 02:52:24;;;;;;;;;;;;;;;;;;6189065;23;19934;-82
2023/04/24 02:54:51;;;;;;;;;;;;;;;;;;6167084;23;19924;-82
2023/04/24 02:57:21;;;;;;;;;;;;;;;;;;6033263;23;19929;-82
2023/04/24 02:59:48;;;;;;;;;;;;;;;;;;5997634;24;19923;-80
2023/04/24 03:02:15;;;;;;;;;;;;;;;;;;5997288;24;19933;-81
2023/04/24 03:04:42;;;;;;;;;;;;;;;;;;5998453;24;19923;-81
2023/04/24 03:07:14;;;;;;;;;;;;;;;;;;6021399;23;19923;-81
2023/04/24 03:09:41;;;;;;;;;;;;;;;;;;5974081;24;19929;-81
2023/04/24 03:12:11;;;;;;;;;;;;;;;;;;5998570;24;19922;-81
2023/04/24 03:14:40;;;;;;;;;;;;;;;;;;5974569;24;19922;-81
2023/04/24 03:17:07;;;;;;;;;;;;;;;;;;5997453;24;19923;-81
2023/04/24 03:19:35;;;;;;;;;;;;;;;;;;5997229;24;19922;-81
2023/04/24 03:22:09;;;;;;;;;;;;;;;;;;5974699;24;19922;-81
2023/04/24 03:24:39;;;;;;;;;;;;;;;;;;6020769;23;19932;-81
2023/04/24 03:27:06;;;;;;;;;;;;;;;;;;5998626;24;19929;-81
2023/04/24 03:29:55;;;;;;;;;;;;;;;;;;5997473;23;19923;-81
2023/04/24 03:32:24;;;;;;;;;;;;;;;;;;6006693;24;19923;-80
2023/04/24 03:34:51;;;;;;;;;;;;;;;;;;5972945;24;19932;-81
2023/04/24 03:37:23;;;;;;;;;;;;;;;;;;5998188;24;19929;-81
2023/04/24 03:40:02;;;;;;;;;;;;;;;;;;6021293;23;19929;-81
2023/04/24 03:42:29;;;;;;;;;;;;;;;;;;5998525;24;19922;-80
2023/04/24 03:44:57;;;;;;;;;;;;;;;;;;5974439;24;19933;-80
2023/04/24 03:47:29;;;;;;;;;;;;;;;;;;6004956;24;19923;-80
2023/04/24 03:49:59;;;;;;;;;;;;;;;;;;6022020;23;19929;-80
2023/04/24 03:52:30;;;;;;;;;;;;;;;;;;6006813;24;19945;-80
2023/04/24 03:54:57;;;;;;;;;;;;;;;;;;5996791;24;19923;-79
2023/04/24 03:57:29;;;;;;;;;;;;;;;;;;5987846;23;19922;-81
2023/04/24 04:00:09;;;;;;;;;;;;;;;;;;6006133;23;19928;-80
2023/04/24 04:02:44;;;;;;;;;;;;;;;;;;5997034;23;20433;-80
2023/04/24 04:05:11;;;;;;;;;;;;;;;;;;5996208;23;20339;-80
2023/04/24 04:07:38;;;;;;;;;;;;;;;;;;5998162;23;19929;-79
2023/04/24 04:10:06;;;;;;;;;;;;;;;;;;6000100;23;19922;-80
2023/04/24 04:12:36;;;;;;;;;;;;;;;;;;5978036;23;19922;-80
2023/04/24 04:15:03;;;;;;;;;;;;;;;;;;6000811;23;19922;-80
2023/04/24 04:17:31;;;;;;;;;;;;;;;;;;6000234;23;19927;-80
2023/04/24 04:20:00;;;;;;;;;;;;;;;;;;6001175;23;19933;-80
2023/04/24 04:22:27;;;;;;;;;;;;;;;;;;6001143;23;19928;-80
2023/04/24 04:24:56;;;;;;;;;;;;;;;;;;5997519;23;19960;-80
2023/04/24 04:27:24;;;;;;;;;;;;;;;;;;5998579;23;19923;-79
2023/04/24 04:30:05;;;;;;;;;;;;;;;;;;6010581;23;19922;-80
2023/04/24 04:32:38;;;;;;;;;;;;;;;;;;5990917;23;20262;-80
2023/04/24 04:35:05;;;;;;;;;;;;;;;;;;5993940;23;19923;-80
2023/04/24 04:37:34;;;;;;;;;;;;;;;;;;5993492;23;19929;-80
2023/04/24 04:40:23;;;;;;;;;;;;;;;;;;6017197;23;19923;-80
2023/04/24 04:43:00;;;;;;;;;;;;;;;;;;5970385;23;19933;-80
2023/04/24 04:45:34;;;;;;;;;;;;;;;;;;6001731;23;19930;-80
2023/04/24 04:48:23;;;;;;;;;;;;;;;;;;5991478;23;19922;-80
2023/04/24 04:50:51;;;;;;;;;;;;;;;;;;6017049;23;19926;-79
2023/04/24 04:53:23;;;;;;;;;;;;;;;;;;6025567;23;19929;-79
2023/04/24 04:55:50;;;;;;;;;;;;;;;;;;5992789;23;19922;-80
2023/04/24 04:58:22;;;;;;;;;;;;;;;;;;6064030;23;19927;-79
2023/04/24 05:00:57;;;;;;;;;;;;;;;;;;6140813;23;19927;-79
2023/04/24 05:03:31;;;;;;;;;;;;;;;;;;6154812;23;19939;-80
2023/04/24 05:06:06;;;;;;;;;;;;;;;;;;6154760;23;19927;-80
2023/04/24 05:08:36;;;;;;;;;;;;;;;;;;6084450;23;19920;-80
2023/04/24 05:11:07;;;;;;;;;;;;;;;;;;6143998;23;20289;-80
2023/04/24 05:13:35;;;;;;;;;;;;;;;;;;6107300;23;19920;-80
2023/04/24 05:16:04;;;;;;;;;;;;;;;;;;6110003;23;19997;-80
2023/04/24 05:18:32;;;;;;;;;;;;;;;;;;6135901;23;19921;-80
2023/04/24 05:20:59;;;;;;;;;;;;;;;;;;6112090;23;20724;-80
2023/04/24 05:23:26;;;;;;;;;;;;;;;;;;6110837;23;19927;-80
2023/04/24 05:25:55;;;;;;;;;;;;;;;;;;6108465;23;19921;-80
2023/04/24 05:28:22;;;;;;;;;;;;;;;;;;6105793;23;19928;-80
2023/04/24 05:31:02;;;;;;;;;;;;;;;;;;6109079;23;19920;-80
2023/04/24 05:33:31;;;;;;;;;;;;;;;;;;6109142;23;20253;-80
2023/04/24 05:35:58;;;;;;;;;;;;;;;;;;6109538;23;19927;-80
2023/04/24 05:38:25;;;;;;;;;;;;;;;;;;6107131;23;19927;-80
2023/04/24 05:40:52;;;;;;;;;;;;;;;;;;6133084;23;19928;-80
2023/04/24 05:43:20;;;;;;;;;;;;;;;;;;6149457;23;19935;-81
2023/04/24 05:45:47;;;;;;;;;;;;;;;;;;6159171;23;19962;-81
2023/04/24 05:48:14;;;;;;;;;;;;;;;;;;6158644;23;19957;-81
2023/04/24 05:50:43;;;;;;;;;;;;;;;;;;6134036;23;19944;-80
2023/04/24 05:53:10;;;;;;;;;;;;;;;;;;6149979;23;19927;-81
2023/04/24 05:55:38;;;;;;;;;;;;;;;;;;6121609;23;19920;-80
2023/04/24 05:58:05;;;;;;;;;;;;;;;;;;6166363;23;19920;-80
2023/04/24 06:00:42;;;;;;;;;;;;;;;;;;6175466;23;19924;-80
2023/04/24 06:03:09;;;;;;;;;;;;;;;;;;6186159;23;19924;-80
2023/04/24 06:05:36;;;;;;;;;;;;;;;;;;6150736;23;19920;-80
2023/04/24 06:08:05;;;;;;;;;;;;;;;;;;6148986;23;19920;-80
2023/04/24 06:10:39;;;;;;;;;;;;;;;;;;6184053;23;19924;-81
2023/04/24 06:13:11;;;;;;;;;;;;;;;;;;6143209;23;19920;-79
2023/04/24 06:15:41;;;;;;;;;;;;;;;;;;6166924;23;20249;-80
2023/04/24 06:18:12;;;;;;;;;;;;;;;;;;6148546;23;19920;-80
2023/04/24 06:20:42;;;;;;;;;;;;;;;;;;6175321;23;19920;-80
2023/04/24 06:23:13;;;;;;;;;;;;;;;;;;6150401;23;20237;-80
2023/04/24 06:25:40;;;;;;;;;;;;;;;;;;6174969;23;19930;-80
2023/04/24 06:28:14;;;;;;;;;;;;;;;;;;6152372;23;19935;-81
2023/04/24 06:30:43;;;;;;;;;;;;;;;;;;6150615;23;20252;-80
2023/04/24 06:33:10;;;;;;;;;;;;;;;;;;6175440;23;19920;-80
2023/04/24 06:35:38;;;;;;;;;;;;;;;;;;6150014;23;19942;-80
2023/04/24 06:38:05;;;;;;;;;;;;;;;;;;6163658;23;19920;-80
2023/04/24 06:40:33;;;;;;;;;;;;;;;;;;6160659;23;19932;-80
2023/04/24 06:43:02;;;;;;;;;;;;;;;;;;6161850;23;19921;-80
2023/04/24 06:45:30;;;;;;;;;;;;;;;;;;6161124;23;19927;-79
2023/04/24 06:47:57;;;;;;;;;;;;;;;;;;6161149;23;19939;-79
2023/04/24 06:50:25;;;;;;;;;;;;;;;;;;6162517;23;20337;-79
2023/04/24 06:52:52;;;;;;;;;;;;;;;;;;6161683;23;19920;-79
2023/04/24 06:55:19;;;;;;;;;;;;;;;;;;6137398;23;19930;-79
2023/04/24 06:57:47;;;;;;;;;;;;;;;;;;6179509;23;19919;-80
2023/04/24 07:00:14;;;;;;;;;;;;;;;;;;6170059;23;20189;-79
2023/04/24 07:02:46;;;;;;;;;;;;;;;;;;6192956;23;19920;-79
2023/04/24 07:05:19;;;;;;;;;;;;;;;;;;6203898;23;19926;-80
2023/04/24 07:07:46;;;;;;;;;;;;;;;;;;6205566;23;19926;-80
2023/04/24 07:10:18;;;;;;;;;;;;;;;;;;6182156;23;19920;-80
2023/04/24 07:12:47;;;;;;;;;;;;;;;;;;6181077;23;19924;-80
2023/04/24 07:15:14;;;;;;;;;;;;;;;;;;6180621;23;19919;-80
2023/04/24 07:17:44;;;;;;;;;;;;;;;;;;6205209;23;19938;-80
2023/04/24 07:20:14;;;;;;;;;;;;;;;;;;6181218;23;19920;-80
2023/04/24 07:22:44;;;;;;;;;;;;;;;;;;6206652;23;19920;-80
2023/04/24 07:25:11;;;;;;;;;;;;;;;;;;6180490;23;19924;-80
2023/04/24 07:27:38;;;;;;;;;;;;;;;;;;6205092;23;19926;-80
2023/04/24 07:30:07;;;;;;;;;;;;;;;;;;6205981;23;19920;-80
2023/04/24 07:32:35;;;;;;;;;;;;;;;;;;6207142;23;19926;-80
2023/04/24 07:35:04;;;;;;;;;;;;;;;;;;6225463;23;19920;-80
2023/04/24 07:37:31;;;;;;;;;;;;;;;;;;6170559;23;20370;-78
2023/04/24 07:39:58;;;;;;;;;;;;;;;;;;6193148;23;19920;-79
2023/04/24 07:42:27;;;;;;;;;;;;;;;;;;6169780;23;19920;-79
2023/04/24 07:44:57;;;;;;;;;;;;;;;;;;6164258;23;19920;-79
2023/04/24 07:47:30;;;;;;;;;;;;;;;;;;6168294;23;19927;-79
2023/04/24 07:49:57;;;;;;;;;;;;;;;;;;6192071;23;20267;-79
2023/04/24 07:52:24;;;;;;;;;;;;;;;;;;6190650;23;19924;-79
2023/04/24 07:54:58;;;;;;;;;;;;;;;;;;6163892;23;19920;-79
2023/04/24 07:57:25;;;;;;;;;;;;;;;;;;6157070;23;19924;-79
2023/04/24 07:59:52;;;;;;;;;;;;;;;;;;6154117;23;19921;-79
2023/04/24 08:02:25;;;;;;;;;;;;;;;;;;6126659;23;19920;-79
2023/04/24 08:04:54;;;;;;;;;;;;;;;;;;6159093;23;19928;-78
2023/04/24 08:07:21;;;;;;;;;;;;;;;;;;6156528;23;19920;-79
2023/04/24 08:09:48;;;;;;;;;;;;;;;;;;6147124;23;19925;-79
2023/04/24 08:12:15;;;;;;;;;;;;;;;;;;6176947;23;19950;-79
2023/04/24 08:14:42;;;;;;;;;;;;;;;;;;6152491;23;19926;-79
2023/04/24 08:17:10;;;;;;;;;;;;;;;;;;6150743;23;19920;-80
2023/04/24 08:19:37;;;;;;;;;;;;;;;;;;6151973;23;19927;-80
2023/04/24 08:22:08;;;;;;;;;;;;;;;;;;6151066;23;20457;-80
2023/04/24 08:24:36;;;;;;;;;;;;;;;;;;6176744;23;19920;-80
2023/04/24 08:27:03;;;;;;;;;;;;;;;;;;6150939;23;19920;-81
2023/04/24 08:29:30;;;;;;;;;;;;;;;;;;6191105;23;19925;-80
2023/04/24 08:31:57;;;;;;;;;;;;;;;;;;6163079;23;20085;-80
2023/04/24 08:34:24;;;;;;;;;;;;;;;;;;6138718;23;19920;-79
2023/04/24 08:36:51;;;;;;;;;;;;;;;;;;6164012;23;19928;-79
2023/04/24 08:39:19;;;;;;;;;;;;;;;;;;6163859;23;19927;-79
2023/04/24 08:41:46;;;;;;;;;;;;;;;;;;6139073;23;19920;-80
2023/04/24 08:44:16;;;;;;;;;;;;;;;;;;6191146;23;20117;-80
2023/04/24 08:46:43;;;;;;;;;;;;;;;;;;6189208;23;19928;-80
2023/04/24 08:49:10;;;;;;;;;;;;;;;;;;6163803;23;20241;-79
2023/04/24 08:51:40;;;;;;;;;;;;;;;;;;6159259;23;20264;-79
2023/04/24 08:54:10;;;;;;;;;;;;;;;;;;6143303;23;19921;-79
2023/04/24 08:56:39;;;;;;;;;;;;;;;;;;6175979;23;19926;-80
2023/04/24 08:59:06;;;;;;;;;;;;;;;;;;6174750;23;19927;-81
2023/04/24 09:01:33;;;;;;;;;;;;;;;;;;6150315;23;19921;-81
2023/04/24 09:04:01;;;;;;;;;;;;;;;;;;6201791;23;19926;-81
2023/04/24 09:06:28;;;;;;;;;;;;;;;;;;6175804;23;19924;-81
2023/04/24 09:08:56;;;;;;;;;;;;;;;;;;6176057;23;20344;-81
2023/04/24 09:11:24;;;;;;;;;;;;;;;;;;6176177;23;19920;-80
2023/04/24 09:13:52;;;;;;;;;;;;;;;;;;6175535;23;19928;-80
2023/04/24 09:16:24;;;;;;;;;;;;;;;;;;6150481;23;19920;-80
2023/04/24 09:18:51;;;;;;;;;;;;;;;;;;6169747;23;19925;-80
2023/04/24 09:21:18;;;;;;;;;;;;;;;;;;6147420;23;19920;-80
2023/04/24 09:23:45;;;;;;;;;;;;;;;;;;6147149;23;20386;-80
2023/04/24 09:26:13;;;;;;;;;;;;;;;;;;6147177;23;19921;-80
2023/04/24 09:28:43;;;;;;;;;;;;;;;;;;6196296;23;19926;-80
2023/04/24 09:31:12;;;;;;;;;;;;;;;;;;6143698;23;19921;-80
2023/04/24 09:33:43;;;;;;;;;;;;;;;;;;6144127;23;19943;-80
2023/04/24 09:36:10;;;;;;;;;;;;;;;;;;6151505;23;19920;-80
2023/04/24 09:38:38;;;;;;;;;;;;;;;;;;6149776;23;19920;-80
2023/04/24 09:41:06;;;;;;;;;;;;;;;;;;6150196;23;19946;-80
2023/04/24 09:43:37;;;;;;;;;;;;;;;;;;6173924;23;20288;-80
2023/04/24 09:46:05;;;;;;;;;;;;;;;;;;6174246;23;20208;-81
2023/04/24 09:48:34;;;;;;;;;;;;;;;;;;6177397;23;19921;-80
2023/04/24 09:51:06;;;;;;;;;;;;;;;;;;6149239;23;19920;-80
2023/04/24 09:53:58;;;;;;;;;;;;;;;;;;6173634;23;19931;-80
2023/04/24 09:56:26;;;;;;;;;;;;;;;;;;6145876;23;19930;-80
2023/04/24 09:59:04;;;;;;;;;;;;;;;;;;6176657;23;19920;-79
2023/04/24 10:01:31;;;;;;;;;;;;;;;;;;6230709;23;19919;-79
2023/04/24 10:04:02;;;;;;;;;;;;;;;;;;6220726;23;19926;-79
2023/04/24 10:06:34;;;;;;;;;;;;;;;;;;6195580;23;20364;-79
2023/04/24 10:09:01;;;;;;;;;;;;;;;;;;6195298;23;19927;-79
2023/04/24 10:11:28;;;;;;;;;;;;;;;;;;6220610;23;20366;-79
2023/04/24 10:13:57;;;;;;;;;;;;;;;;;;6221718;23;19920;-79
2023/04/24 10:16:24;;;;;;;;;;;;;;;;;;6222231;23;19926;-80
2023/04/24 10:18:53;;;;;;;;;;;;;;;;;;6195537;23;19942;-79
2023/04/24 10:21:21;;;;;;;;;;;;;;;;;;6220533;23;19920;-79
2023/04/24 10:23:48;;;;;;;;;;;;;;;;;;6219671;23;19926;-79
2023/04/24 10:26:17;;;;;;;;;;;;;;;;;;6247124;23;19920;-79
2023/04/24 10:28:45;;;;;;;;;;;;;;;;;;6218750;23;19927;-79
2023/04/24 10:31:12;;;;;;;;;;;;;;;;;;6247970;23;19926;-79
2023/04/24 10:33:42;;;;;;;;;;;;;;;;;;6195685;23;19919;-79
2023/04/24 10:36:14;;;;;;;;;;;;;;;;;;6234377;23;19919;-80
2023/04/24 10:38:43;;;;;;;;;;;;;;;;;;6221788;23;20259;-80
2023/04/24 10:41:15;;;;;;;;;;;;;;;;;;6223742;23;20262;-80
2023/04/24 10:43:43;;;;;;;;;;;;;;;;;;6233596;23;19919;-80
2023/04/24 10:46:11;;;;;;;;;;;;;;;;;;6223572;23;19920;-80
2023/04/24 10:48:43;;;;;;;;;;;;;;;;;;6222217;23;19942;-80
2023/04/24 10:51:13;;;;;;;;;;;;;;;;;;6230707;23;19919;-80
2023/04/24 10:53:40;;;;;;;;;;;;;;;;;;6194940;23;19919;-79
2023/04/24 10:56:10;;;;;;;;;;;;;;;;;;6194908;23;19920;-79
2023/04/24 10:58:39;;;;;;;;;;;;;;;;;;6216414;23;19927;-79
2023/04/24 11:01:07;;;;;;;;;;;;;;;;;;6227922;23;19923;-81
2023/04/24 11:03:37;;;;;;;;;;;;;;;;;;6228027;23;19920;-81
2023/04/24 11:06:06;;;;;;;;;;;;;;;;;;6228742;23;19920;-81
2023/04/24 11:08:40;;;;;;;;;;;;;;;;;;6256261;23;19926;-81
2023/04/24 11:11:12;;;;;;;;;;;;;;;;;;6204750;23;19923;-81
2023/04/24 11:14:00;;;;;;;;;;;;;;;;;;6198691;23;19919;-79
2023/04/24 11:16:28;;;;;;;;;;;;;;;;;;6220874;23;20267;-79
2023/04/24 11:19:01;;;;;;;;;;;;;;;;;;6218879;23;19927;-79
2023/04/24 11:21:32;;;;;;;;;;;;;;;;;;6195505;23;19920;-79
2023/04/24 11:24:17;;;;;;;;;;;;;;;;;;6223684;23;19920;-79
2023/04/24 11:26:45;;;;;;;;;;;;;;;;;;6199030;23;19919;-79
2023/04/24 11:29:12;;;;;;;;;;;;;;;;;;6197423;23;19919;-80
2023/04/24 11:31:40;;;;;;;;;;;;;;;;;;6199195;23;19919;-80
2023/04/24 11:34:10;;;;;;;;;;;;;;;;;;6224139;23;19919;-80
2023/04/24 11:36:37;;;;;;;;;;;;;;;;;;6224170;23;19930;-79
2023/04/24 11:39:04;;;;;;;;;;;;;;;;;;6249610;23;19927;-80
2023/04/24 11:41:31;;;;;;;;;;;;;;;;;;6222495;23;19923;-79
2023/04/24 11:43:59;;;;;;;;;;;;;;;;;;6222536;23;19920;-79
2023/04/24 11:46:29;;;;;;;;;;;;;;;;;;6222466;23;20351;-79
2023/04/24 11:48:59;;;;;;;;;;;;;;;;;;6248473;23;19919;-79
2023/04/24 11:51:26;;;;;;;;;;;;;;;;;;6222323;23;19935;-79
2023/04/24 11:53:55;;;;;;;;;;;;;;;;;;6197897;23;19919;-79
2023/04/24 11:56:25;;;;;;;;;;;;;;;;;;6259632;23;19926;-79
2023/04/24 11:58:52;;;;;;;;;;;;;;;;;;6196261;23;19924;-79
2023/04/24 12:01:21;;;;;;;;;;;;;;;;;;6220760;23;19920;-79
2023/04/24 12:03:51;;;;;;;;;;;;;;;;;;6230837;23;19934;-79
2023/04/24 12:06:19;;;;;;;;;;;;;;;;;;6194793;23;19920;-79
2023/04/24 12:08:47;;;;;;;;;;;;;;;;;;6218442;23;19927;-78
2023/04/24 12:11:17;;;;;;;;;;;;;;;;;;6218617;23;19920;-79
2023/04/24 12:13:47;;;;;;;;;;;;;;;;;;6255743;23;19928;-79
2023/04/24 12:16:14;;;;;;;;;;;;;;;;;;6193287;23;19919;-79
2023/04/24 12:18:47;;;;;;;;;;;;;;;;;;6244860;23;19920;-79
2023/04/24 12:21:18;;;;;;;;;;;;;;;;;;6216851;23;19919;-79
2023/04/24 12:23:45;;;;;;;;;;;;;;;;;;6218348;23;19919;-79
2023/04/24 12:26:17;;;;;;;;;;;;;;;;;;6218838;23;20256;-79
2023/04/24 12:28:49;;;;;;;;;;;;;;;;;;6240274;23;19946;-79
2023/04/24 12:31:21;;;;;;;;;;;;;;;;;;6194047;23;19920;-79
2023/04/24 12:33:50;;;;;;;;;;;;;;;;;;6193717;23;19919;-79
2023/04/24 12:36:17;;;;;;;;;;;;;;;;;;6220560;23;19923;-79
2023/04/24 12:38:46;;;;;;;;;;;;;;;;;;6248828;23;20332;-79
2023/04/24 12:41:13;;;;;;;;;;;;;;;;;;6220794;23;20362;-79
2023/04/24 12:43:51;;;;;;;;;;;;;;;;;;6221368;23;20252;-79
2023/04/24 12:46:18;;;;;;;;;;;;;;;;;;6258058;23;19927;-79
2023/04/24 12:48:47;;;;;;;;;;;;;;;;;;6221064;23;19935;-79
2023/04/24 12:51:15;;;;;;;;;;;;;;;;;;6222860;23;19920;-79
2023/04/24 12:53:42;;;;;;;;;;;;;;;;;;6223933;23;19927;-79
2023/04/24 12:56:12;;;;;;;;;;;;;;;;;;6222936;23;19920;-79
2023/04/24 12:58:41;;;;;;;;;;;;;;;;;;6223301;23;19919;-79
2023/04/24 13:01:08;;;;;;;;;;;;;;;;;;6222154;23;20336;-79
2023/04/24 13:03:35;;;;;;;;;;;;;;;;;;6223128;23;20247;-79
2023/04/24 13:06:02;;;;;;;;;;;;;;;;;;6198387;23;19920;-80
2023/04/24 13:08:30;;;;;;;;;;;;;;;;;;6197179;23;20342;-79
2023/04/24 13:10:57;;;;;;;;;;;;;;;;;;6221063;23;19923;-79
2023/04/24 13:13:27;;;;;;;;;;;;;;;;;;6247321;23;19930;-79
2023/04/24 13:16:01;;;;;;;;;;;;;;;;;;6220915;23;19920;-79
2023/04/24 13:18:28;;;;;;;;;;;;;;;;;;6196535;23;19926;-79
2023/04/24 13:20:57;;;;;;;;;;;;;;;;;;6222234;23;20367;-79
2023/04/24 13:23:24;;;;;;;;;;;;;;;;;;6223191;23;20347;-79
2023/04/24 13:25:58;;;;;;;;;;;;;;;;;;6222600;23;20352;-79
2023/04/24 13:28:27;;;;;;;;;;;;;;;;;;6225923;23;20255;-79
2023/04/24 13:30:54;;;;;;;;;;;;;;;;;;6250614;23;19923;-80
2023/04/24 13:33:23;;;;;;;;;;;;;;;;;;6199086;23;20348;-80
2023/04/24 13:35:50;;;;;;;;;;;;;;;;;;6250357;23;19930;-80
2023/04/24 13:38:21;;;;;;;;;;;;;;;;;;6222860;23;19920;-80
2023/04/24 13:40:50;;;;;;;;;;;;;;;;;;6197433;23;19924;-79
2023/04/24 13:43:19;;;;;;;;;;;;;;;;;;6223023;23;19924;-79
2023/04/24 13:45:48;;;;;;;;;;;;;;;;;;6222694;23;19919;-79
2023/04/24 13:48:15;;;;;;;;;;;;;;;;;;6221243;23;19927;-79
2023/04/24 13:50:42;;;;;;;;;;;;;;;;;;6197385;23;19920;-79
2023/04/24 13:53:09;;;;;;;;;;;;;;;;;;6222234;23;19919;-79
2023/04/24 13:55:36;;;;;;;;;;;;;;;;;;6199041;23;20267;-79
2023/04/24 13:58:03;;;;;;;;;;;;;;;;;;6223145;23;19926;-79
2023/04/24 14:00:32;;;;;;;;;;;;;;;;;;6223462;23;19919;-79
2023/04/24 14:03:03;;;;;;;;;;;;;;;;;;6222213;23;19920;-79
2023/04/24 14:05:33;;;;;;;;;;;;;;;;;;6194917;23;19920;-79
2023/04/24 14:08:02;;;;;;;;;;;;;;;;;;6219638;23;19926;-79
2023/04/24 14:10:30;;;;;;;;;;;;;;;;;;6196235;23;20340;-79
2023/04/24 14:12:57;;;;;;;;;;;;;;;;;;6219361;23;19939;-79
2023/04/24 14:15:24;;;;;;;;;;;;;;;;;;6195208;23;19933;-79
2023/04/24 14:17:52;;;;;;;;;;;;;;;;;;6194799;23;20358;-79
2023/04/24 14:20:22;;;;;;;;;;;;;;;;;;6218762;23;19926;-79
2023/04/24 14:22:51;;;;;;;;;;;;;;;;;;6229285;23;19920;-79
2023/04/24 14:25:22;;;;;;;;;;;;;;;;;;6218638;23;19920;-78
2023/04/24 14:27:54;;;;;;;;;;;;;;;;;;6218573;23;19919;-78
2023/04/24 14:30:21;;;;;;;;;;;;;;;;;;6218750;23;19924;-79
2023/04/24 14:32:51;;;;;;;;;;;;;;;;;;6219604;23;19938;-79
2023/04/24 14:35:20;;;;;;;;;;;;;;;;;;6218628;23;19920;-80
2023/04/24 14:37:48;;;;;;;;;;;;;;;;;;6217330;23;19920;-79
2023/04/24 14:40:15;;;;;;;;;;;;;;;;;;6218492;23;19926;-79
2023/04/24 14:42:44;;;;;;;;;;;;;;;;;;6194701;23;20232;-79
2023/04/24 14:45:11;;;;;;;;;;;;;;;;;;6194585;23;19927;-79
2023/04/24 14:47:40;;;;;;;;;;;;;;;;;;6195441;23;20359;-80
2023/04/24 14:50:12;;;;;;;;;;;;;;;;;;6221255;23;19919;-79
2023/04/24 14:52:39;;;;;;;;;;;;;;;;;;6222157;23;19919;-79
2023/04/24 14:55:06;;;;;;;;;;;;;;;;;;6225455;23;19920;-80
2023/04/24 14:57:33;;;;;;;;;;;;;;;;;;6200453;23;19930;-80
2023/04/24 15:00:05;;;;;;;;;;;;;;;;;;6224766;23;19920;-80
2023/04/24 15:02:36;;;;;;;;;;;;;;;;;;6235927;23;19920;-80
2023/04/24 15:05:09;;;;;;;;;;;;;;;;;;6225227;23;19923;-80
2023/04/24 15:07:41;;;;;;;;;;;;;;;;;;6199245;23;19924;-79
2023/04/24 15:10:11;;;;;;;;;;;;;;;;;;6261170;23;19920;-79
2023/04/24 15:12:38;;;;;;;;;;;;;;;;;;6223770;23;19923;-79
2023/04/24 15:15:06;;;;;;;;;;;;;;;;;;6233086;23;19919;-80
2023/04/24 15:17:33;;;;;;;;;;;;;;;;;;6199017;23;19920;-80
2023/04/24 15:20:00;;;;;;;;;;;;;;;;;;6233846;23;19926;-80
2023/04/24 15:22:29;;;;;;;;;;;;;;;;;;6222223;23;19926;-80
2023/04/24 15:24:58;;;;;;;;;;;;;;;;;;6220249;23;19924;-79
2023/04/24 15:27:25;;;;;;;;;;;;;;;;;;6195957;23;20359;-79
2023/04/24 15:29:54;;;;;;;;;;;;;;;;;;6230497;23;20344;-79
2023/04/24 15:32:21;;;;;;;;;;;;;;;;;;6195539;23;19926;-79
2023/04/24 15:34:48;;;;;;;;;;;;;;;;;;6196087;23;20370;-79
2023/04/24 15:37:17;;;;;;;;;;;;;;;;;;6220107;23;20359;-79
2023/04/24 15:39:45;;;;;;;;;;;;;;;;;;6219339;23;19919;-79
2023/04/24 15:42:13;;;;;;;;;;;;;;;;;;6196664;23;19920;-79
2023/04/24 15:44:40;;;;;;;;;;;;;;;;;;6196173;23;19930;-79
2023/04/24 15:47:07;;;;;;;;;;;;;;;;;;6222551;23;19926;-80
2023/04/24 15:49:34;;;;;;;;;;;;;;;;;;6220718;23;19920;-79
2023/04/24 15:52:01;;;;;;;;;;;;;;;;;;6252385;23;19926;-79
2023/04/24 15:54:28;;;;;;;;;;;;;;;;;;6224024;23;19923;-80
2023/04/24 15:56:59;;;;;;;;;;;;;;;;;;6225548;23;19919;-80
2023/04/24 15:59:29;;;;;;;;;;;;;;;;;;6223591;23;19919;-79
2023/04/24 16:01:56;;;;;;;;;;;;;;;;;;6224267;23;19926;-79
2023/04/24 16:04:23;;;;;;;;;;;;;;;;;;6224786;23;19926;-79
2023/04/24 16:06:51;;;;;;;;;;;;;;;;;;6197928;23;19926;-80
2023/04/24 16:09:18;;;;;;;;;;;;;;;;;;6221237;23;19927;-80
2023/04/24 16:11:45;;;;;;;;;;;;;;;;;;6222496;23;20430;-79
2023/04/24 16:14:12;;;;;;;;;;;;;;;;;;6218723;23;19926;-79
2023/04/24 16:16:41;;;;;;;;;;;;;;;;;;6218439;23;20278;-79
2023/04/24 16:19:10;;;;;;;;;;;;;;;;;;6217909;23;19919;-79
2023/04/24 16:21:37;;;;;;;;;;;;;;;;;;6246210;23;19920;-79
2023/04/24 16:24:04;;;;;;;;;;;;;;;;;;6218999;23;20248;-79
2023/04/24 16:26:34;;;;;;;;;;;;;;;;;;6219425;23;19920;-79
2023/04/24 16:29:03;;;;;;;;;;;;;;;;;;6243864;23;19919;-79
2023/04/24 16:31:33;;;;;;;;;;;;;;;;;;6220008;23;19934;-81
2023/04/24 16:34:01;;;;;;;;;;;;;;;;;;6192910;23;19927;-78
2023/04/24 16:36:28;;;;;;;;;;;;;;;;;;6190951;23;20263;-78
2023/04/24 16:38:56;;;;;;;;;;;;;;;;;;6215134;23;20345;-78
2023/04/24 16:41:23;;;;;;;;;;;;;;;;;;6216753;23;19919;-78
2023/04/24 16:43:50;;;;;;;;;;;;;;;;;;6193710;23;19923;-78
2023/04/24 16:46:19;;;;;;;;;;;;;;;;;;6220054;23;19930;-78
2023/04/24 16:48:46;;;;;;;;;;;;;;;;;;6219565;23;20339;-78
2023/04/24 16:51:14;;;;;;;;;;;;;;;;;;6220719;23;19927;-78
2023/04/24 16:53:44;;;;;;;;;;;;;;;;;;6220192;23;19976;-78
2023/04/24 16:56:14;;;;;;;;;;;;;;;;;;6220368;23;19920;-78
2023/04/24 16:58:41;;;;;;;;;;;;;;;;;;6203706;23;19919;-78